Time;durP1;ratioP1;P1;durP2;ratioP2;P2;SDS_P1;SDS_P2;PMS_P1;PMS_P2;Temp;Humidity;BMP_temperature;BMP_pressure;BME280_temperature;BME280_humidity;BME280_pressure;Samples;Min_cycle;Max_cycle;Signal;HPM_P1;HPM_P2
2023/06/24 00:00:19;;;;;;;2.45;1.13;;;;;;;18.10;100.00;100993.38;5024927;28;20046;-66
2023/06/24 00:02:46;;;;;;;4.70;1.60;;;;;;;18.08;100.00;100991.75;5013707;28;20046;-67
2023/06/24 00:05:12;;;;;;;6.45;2.08;;;;;;;17.83;100.00;100982.72;5021143;28;20514;-66
2023/06/24 00:07:44;;;;;;;6.68;1.67;;;;;;;17.85;100.00;100994.06;5012774;28;20064;-66
2023/06/24 00:10:13;;;;;;;4.88;1.70;;;;;;;17.91;100.00;100993.69;5015701;28;20081;-66
2023/06/24 00:12:42;;;;;;;5.18;1.90;;;;;;;17.81;100.00;100989.91;5029278;28;20535;-66
2023/06/24 00:15:10;;;;;;;3.38;1.30;;;;;;;18.00;100.00;101000.19;5025870;28;20055;-67
2023/06/24 00:17:37;;;;;;;4.53;1.60;;;;;;;18.08;100.00;100997.03;5023500;28;20085;-66
2023/06/24 00:20:07;;;;;;;3.50;1.50;;;;;;;18.16;100.00;100985.00;5024626;28;20061;-66
2023/06/24 00:22:33;;;;;;;4.57;1.70;;;;;;;18.11;100.00;100994.19;5024951;28;20045;-66
2023/06/24 00:25:00;;;;;;;3.60;1.30;;;;;;;18.13;100.00;100994.94;5028880;28;20483;-66
2023/06/24 00:27:27;;;;;;;4.47;1.63;;;;;;;18.01;100.00;100992.16;5031228;28;20141;-66
2023/06/24 00:29:54;;;;;;;4.43;1.70;;;;;;;18.13;100.00;100994.94;5031203;28;20049;-66
2023/06/24 00:32:20;;;;;;;4.07;1.50;;;;;;;18.14;100.00;100991.34;5029678;28;20046;-66
2023/06/24 00:34:47;;;;;;;5.22;1.63;;;;;;;18.15;100.00;100983.31;5021183;28;20065;-65
2023/06/24 00:37:14;;;;;;;4.88;1.55;;;;;;;18.22;100.00;100981.13;5026095;28;20636;-66
2023/06/24 00:39:41;;;;;;;4.53;1.52;;;;;;;18.21;100.00;100996.16;5030739;28;20075;-66
2023/06/24 00:42:08;;;;;;;4.28;1.48;;;;;;;18.41;100.00;100991.34;5031323;28;20144;-66
2023/06/24 00:44:37;;;;;;;6.25;1.60;;;;;;;18.46;100.00;100991.03;5030458;28;20045;-66
2023/06/24 00:47:04;;;;;;;4.90;1.83;;;;;;;18.51;100.00;100997.72;5020607;28;20081;-66
2023/06/24 00:49:31;;;;;;;4.30;1.45;;;;;;;18.62;100.00;101001.47;5029597;28;20059;-66
2023/06/24 00:52:00;;;;;;;6.45;2.10;;;;;;;18.54;100.00;101002.81;5031658;28;20586;-66
2023/06/24 00:54:30;;;;;;;6.07;1.85;;;;;;;18.49;100.00;101004.94;5017931;28;20440;-66
2023/06/24 00:57:01;;;;;;;5.38;1.85;;;;;;;18.41;100.00;100993.97;5020539;28;20057;-66
2023/06/24 00:59:29;;;;;;;7.47;2.28;;;;;;;18.32;100.00;100990.13;5028734;28;20076;-66
2023/06/24 01:01:56;;;;;;;6.22;2.28;;;;;;;18.34;100.00;100979.44;5017888;28;20490;-65
2023/06/24 01:04:24;;;;;;;7.50;2.42;;;;;;;18.34;100.00;100990.03;5022016;28;20572;-65
2023/06/24 01:06:52;;;;;;;4.53;1.73;;;;;;;18.28;100.00;100990.47;5028275;28;20060;-66
2023/06/24 01:09:19;;;;;;;6.00;2.55;;;;;;;18.27;100.00;100986.94;5018226;28;20053;-65
2023/06/24 01:11:47;;;;;;;6.65;2.60;;;;;;;18.32;100.00;100986.66;5016596;28;20180;-66
2023/06/24 01:14:13;;;;;;;6.55;2.03;;;;;;;18.35;100.00;100994.41;5023880;28;20049;-66
2023/06/24 01:16:49;;;;;;;9.88;3.67;;;;;;;18.32;100.00;100998.09;5028327;28;20053;-66
2023/06/24 01:19:34;;;;;;;9.52;2.95;;;;;;;18.25;100.00;100994.16;5024926;28;20494;-66
2023/06/24 01:22:32;;;;;;;6.22;2.35;;;;;;;18.38;100.00;100991.56;5027951;28;20547;-66
2023/06/24 01:25:43;;;;;;;8.82;3.35;;;;;;;18.26;100.00;100993.22;5029046;28;20487;-66
2023/06/24 01:28:23;;;;;;;7.22;2.92;;;;;;;18.19;100.00;101003.34;5014721;28;20051;-66
2023/06/24 01:31:00;;;;;;;8.50;3.17;;;;;;;18.33;100.00;101004.25;5029012;28;20152;-66
2023/06/24 01:33:36;;;;;;;9.60;3.15;;;;;;;18.42;100.00;101001.00;5016398;28;20050;-66
2023/06/24 01:36:08;;;;;;;8.45;3.22;;;;;;;18.39;100.00;101003.84;5023497;28;20061;-67
2023/06/24 01:38:41;;;;;;;9.52;4.00;;;;;;;18.36;100.00;101014.63;5017232;28;20129;-67
2023/06/24 01:41:08;;;;;;;;;;;;;;;18.21;100.00;101005.91;5025837;28;20132;-66
2023/06/24 01:43:37;;;;;;;7.82;2.50;;;;;;;18.26;100.00;100997.66;5027839;28;19931;-66
2023/06/24 01:46:06;;;;;;;6.18;2.47;;;;;;;18.41;100.00;100988.69;5010075;28;20058;-66
2023/06/24 01:48:35;;;;;;;6.25;2.30;;;;;;;18.32;100.00;100990.13;5022697;28;20532;-66
2023/06/24 01:51:19;;;;;;;6.90;2.35;;;;;;;18.36;100.00;100973.09;5027549;28;20136;-66
2023/06/24 01:53:54;;;;;;;7.70;2.67;;;;;;;18.35;100.00;100983.81;5010943;28;20064;-65
2023/06/24 01:56:23;;;;;;;7.25;2.75;;;;;;;18.33;100.00;100983.06;5025829;28;20052;-66
2023/06/24 01:58:53;;;;;;;8.27;2.75;;;;;;;18.38;100.00;100978.31;5030214;28;20067;-65
2023/06/24 02:01:22;;;;;;;7.47;3.00;;;;;;;18.46;100.00;100972.47;5026312;28;20050;-65
2023/06/24 02:03:52;;;;;;;7.03;2.30;;;;;;;18.51;100.00;100970.38;5011819;28;20049;-66
2023/06/24 02:06:20;;;;;;;10.82;3.55;;;;;;;18.37;100.00;100974.78;5027559;28;20049;-66
2023/06/24 02:08:50;;;;;;;9.25;2.70;;;;;;;18.54;100.00;100972.81;5010000;28;20054;-66
2023/06/24 02:11:18;;;;;;;6.20;2.35;;;;;;;18.52;100.00;100972.06;5011465;28;20050;-66
2023/06/24 02:13:45;;;;;;;5.97;2.28;;;;;;;18.44;100.00;100958.47;5028818;28;20060;-65
2023/06/24 02:16:14;;;;;;;5.43;2.00;;;;;;;18.46;100.00;100967.19;5021520;28;20065;-65
2023/06/24 02:18:43;;;;;;;4.22;1.70;;;;;;;18.48;100.00;100952.84;5019767;28;20061;-65
2023/06/24 02:21:11;;;;;;;5.97;2.55;;;;;;;18.45;100.00;100952.22;5022800;28;20045;-66
2023/06/24 02:23:39;;;;;;;6.68;2.50;;;;;;;18.36;100.00;100957.19;5027220;28;20528;-66
2023/06/24 02:26:07;;;;;;;5.90;2.22;;;;;;;18.39;100.00;100951.66;5028153;28;20088;-66
2023/06/24 02:28:34;;;;;;;5.53;2.00;;;;;;;18.30;100.00;100946.16;5020836;28;20053;-67
2023/06/24 02:31:02;;;;;;;6.15;2.65;;;;;;;18.34;100.00;100942.31;5029441;28;20463;-66
2023/06/24 02:33:29;;;;;;;4.88;2.10;;;;;;;18.24;100.00;100944.75;5028786;28;20125;-66
2023/06/24 02:35:55;;;;;;;6.07;2.42;;;;;;;18.26;100.00;100939.34;5016495;28;20077;-66
2023/06/24 02:38:22;;;;;;;7.13;2.00;;;;;;;18.26;100.00;100940.19;5025329;28;20092;-66
2023/06/24 02:40:50;;;;;;;5.85;2.25;;;;;;;18.30;100.00;100944.34;5029762;28;20052;-66
2023/06/24 02:43:17;;;;;;;4.88;1.80;;;;;;;18.28;100.00;100930.34;5029610;28;20048;-66
2023/06/24 02:45:47;;;;;;;6.93;1.85;;;;;;;18.47;100.00;100931.75;5020504;28;20058;-67
2023/06/24 02:48:15;;;;;;;5.13;1.63;;;;;;;18.50;100.00;100936.84;5025671;28;20571;-66
2023/06/24 02:50:44;;;;;;;3.70;1.45;;;;;;;18.45;100.00;100933.66;5025241;28;20061;-66
2023/06/24 02:53:13;;;;;;;3.95;1.48;;;;;;;18.66;100.00;100944.59;5025744;28;20050;-66
2023/06/24 02:55:42;;;;;;;7.18;2.40;;;;;;;18.69;100.00;100941.75;5030041;28;20131;-67
2023/06/24 02:58:10;;;;;;;7.05;2.30;;;;;;;18.69;100.00;100937.28;5033579;28;20049;-66
2023/06/24 03:00:37;;;;;;;5.10;1.90;;;;;;;18.74;100.00;100934.31;5032843;28;20201;-66
2023/06/24 03:03:06;;;;;;;7.20;2.08;;;;;;;18.68;100.00;100927.66;5039964;28;20398;-66
2023/06/24 03:05:35;;;;;;;4.15;1.55;;;;;;;18.74;100.00;100924.56;5037192;28;20072;-66
2023/06/24 03:08:05;;;;;;;6.38;1.88;;;;;;;18.78;100.00;100936.66;5046820;28;20048;-66
2023/06/24 03:10:32;;;;;;;5.65;1.90;;;;;;;18.67;100.00;100922.44;5034626;28;20399;-66
2023/06/24 03:12:58;;;;;;;4.53;1.55;;;;;;;18.63;100.00;100931.53;5033455;28;20064;-66
2023/06/24 03:15:25;;;;;;;5.15;1.80;;;;;;;18.62;100.00;100927.22;5034354;28;20417;-66
2023/06/24 03:17:54;;;;;;;5.57;1.98;;;;;;;18.48;100.00;100915.72;5033879;28;20487;-66
2023/06/24 03:20:21;;;;;;;5.88;2.17;;;;;;;18.48;100.00;100926.34;5033948;28;20136;-66
2023/06/24 03:22:47;;;;;;;5.40;2.00;;;;;;;18.50;100.00;100932.41;5048436;28;20192;-65
2023/06/24 03:25:14;;;;;;;9.20;2.58;;;;;;;18.67;100.00;100933.06;5032394;28;20052;-65
2023/06/24 03:27:41;;;;;;;6.00;2.00;;;;;;;18.70;100.00;100939.00;5034028;28;20508;-66
2023/06/24 03:30:08;;;;;;;3.63;1.50;;;;;;;18.62;100.00;100932.53;5032298;28;20060;-65
2023/06/24 03:32:35;;;;;;;8.48;2.20;;;;;;;18.62;100.00;100940.47;5049591;28;20045;-66
2023/06/24 03:35:03;;;;;;;4.47;1.73;;;;;;;18.57;100.00;100928.38;5042447;28;20115;-65
2023/06/24 03:37:30;;;;;;;6.13;1.75;;;;;;;18.49;100.00;100927.22;5037656;28;20052;-65
2023/06/24 03:39:57;;;;;;;5.05;1.67;;;;;;;18.41;100.00;100935.66;5031870;28;20049;-65
2023/06/24 03:42:23;;;;;;;3.75;1.45;;;;;;;18.56;100.00;100939.94;5038798;28;20037;-65
2023/06/24 03:44:50;;;;;;;4.63;1.77;;;;;;;18.52;100.00;100909.28;5035879;28;20072;-65
2023/06/24 03:47:17;;;;;;;4.90;1.85;;;;;;;18.35;100.00;100912.22;5035705;28;20045;-66
2023/06/24 03:49:43;;;;;;;4.53;1.77;;;;;;;18.46;100.00;100915.00;5041510;28;20053;-66
2023/06/24 03:52:10;;;;;;;3.72;1.60;;;;;;;18.40;100.00;100915.44;5052639;28;20128;-65
2023/06/24 03:54:37;;;;;;;4.65;1.73;;;;;;;18.42;100.00;100905.56;5038274;28;20049;-65
2023/06/24 03:57:04;;;;;;;3.80;1.63;;;;;;;18.48;100.00;100918.38;5045608;28;20258;-66
2023/06/24 03:59:30;;;;;;;5.05;1.92;;;;;;;18.47;100.00;100903.44;5038148;28;20053;-66
2023/06/24 04:01:57;;;;;;;5.50;1.40;;;;;;;18.50;100.00;100907.69;5052169;28;20055;-66
2023/06/24 04:04:24;;;;;;;4.22;1.50;;;;;;;18.55;100.00;100919.66;5038678;28;20053;-66
2023/06/24 04:06:51;;;;;;;5.93;2.22;;;;;;;18.43;100.00;100907.25;5036605;28;20505;-66
2023/06/24 04:09:17;;;;;;;4.80;1.60;;;;;;;18.51;100.00;100912.03;5041935;28;20053;-66
2023/06/24 04:11:44;;;;;;;3.13;1.30;;;;;;;18.52;100.00;100914.59;5034711;28;20053;-65
2023/06/24 04:14:11;;;;;;;3.53;1.42;;;;;;;19.01;100.00;100926.28;5037457;28;20045;-65
2023/06/24 04:16:37;;;;;;;4.60;1.80;;;;;;;19.81;100.00;100933.03;5049691;28;20059;-66
2023/06/24 04:19:04;;;;;;;4.95;1.98;;;;;;;19.88;100.00;100937.78;5021776;28;20060;-66
2023/06/24 04:21:31;;;;;;;2.90;1.30;;;;;;;20.41;100.00;100937.38;5032171;28;20503;-66
2023/06/24 04:23:57;;;;;;;4.32;1.75;;;;;;;20.69;100.00;100931.78;5042296;28;20041;-66
2023/06/24 04:26:24;;;;;;;7.03;2.85;;;;;;;20.76;100.00;100935.69;5029746;28;20053;-66
2023/06/24 04:28:51;;;;;;;6.57;1.85;;;;;;;20.89;100.00;100925.75;5030472;28;20052;-66
2023/06/24 04:31:18;;;;;;;4.20;1.50;;;;;;;21.43;100.00;100932.16;5032958;28;20491;-66
2023/06/24 04:33:44;;;;;;;3.42;1.55;;;;;;;21.03;100.00;100930.00;5030143;28;20046;-66
2023/06/24 04:36:11;;;;;;;4.43;1.42;;;;;;;20.86;100.00;100931.34;5019896;28;20471;-66
2023/06/24 04:38:38;;;;;;;2.75;1.13;;;;;;;21.06;100.00;100929.78;5045606;28;20067;-67
2023/06/24 04:41:05;;;;;;;3.78;1.40;;;;;;;21.70;100.00;100930.94;5032704;28;20049;-66
2023/06/24 04:43:31;;;;;;;3.78;1.30;;;;;;;21.97;100.00;100923.34;5039415;28;20434;-66
2023/06/24 04:45:58;;;;;;;3.60;1.30;;;;;;;22.45;100.00;100923.84;5034297;28;20045;-66
2023/06/24 04:48:26;;;;;;;3.45;1.40;;;;;;;22.67;100.00;100918.38;5041047;28;20049;-65
2023/06/24 04:50:54;;;;;;;2.20;1.10;;;;;;;22.82;100.00;100913.53;5031612;28;20045;-66
2023/06/24 04:53:21;;;;;;;2.97;0.98;;;;;;;23.25;100.00;100911.66;5032857;28;20045;-66
2023/06/24 04:55:48;;;;;;;2.22;0.95;;;;;;;23.65;100.00;100918.75;5029421;28;20056;-65
2023/06/24 04:58:15;;;;;;;4.25;1.13;;;;;;;23.26;100.00;100910.66;5030290;28;20140;-66
2023/06/24 05:00:41;;;;;;;2.10;0.90;;;;;;;21.72;100.00;100908.50;5038474;28;20053;-66
2023/06/24 05:03:08;;;;;;;2.13;0.90;;;;;;;21.32;100.00;100914.38;5015161;28;20050;-66
2023/06/24 05:05:35;;;;;;;1.33;0.80;;;;;;;21.33;100.00;100913.41;5018938;28;20115;-66
2023/06/24 05:08:02;;;;;;;4.20;1.17;;;;;;;20.81;100.00;100909.56;5030613;28;20049;-66
2023/06/24 05:10:29;;;;;;;2.40;1.15;;;;;;;20.92;100.00;100914.88;5030324;28;20041;-67
2023/06/24 05:12:55;;;;;;;3.25;1.20;;;;;;;20.64;100.00;100906.38;5030473;28;20052;-66
2023/06/24 05:15:22;;;;;;;4.13;1.35;;;;;;;20.57;100.00;100902.47;5025238;28;20488;-65
2023/06/24 05:17:49;;;;;;;2.92;1.20;;;;;;;20.66;100.00;100915.13;5029948;28;20053;-65
2023/06/24 05:20:19;;;;;;;2.90;1.25;;;;;;;20.72;100.00;100913.78;5030869;28;20053;-65
2023/06/24 05:22:46;;;;;;;2.45;1.02;;;;;;;20.82;100.00;100922.75;5030047;28;20137;-67
2023/06/24 05:25:13;;;;;;;3.53;1.30;;;;;;;21.17;100.00;100903.13;5029345;28;20472;-66
2023/06/24 05:27:40;;;;;;;4.13;1.40;;;;;;;21.74;100.00;100913.72;5029729;28;20507;-66
2023/06/24 05:30:07;;;;;;;3.03;1.20;;;;;;;22.27;100.00;100911.09;5030640;28;20414;-66
2023/06/24 05:32:34;;;;;;;2.22;1.05;;;;;;;22.83;100.00;100914.41;5028117;28;20045;-66
2023/06/24 05:35:00;;;;;;;4.03;1.10;;;;;;;23.23;100.00;100909.13;5029486;28;20061;-66
2023/06/24 05:37:27;;;;;;;2.90;0.93;;;;;;;23.61;100.00;100912.00;5030212;28;20518;-66
2023/06/24 05:39:55;;;;;;;1.48;0.85;;;;;;;23.91;100.00;100923.63;5029509;28;20144;-66
2023/06/24 05:42:22;;;;;;;3.03;1.20;;;;;;;24.05;100.00;100916.00;5029415;28;20056;-66
2023/06/24 05:44:49;;;;;;;3.55;1.25;;;;;;;23.72;100.00;100906.53;5029500;28;20049;-66
2023/06/24 05:47:16;;;;;;;2.70;1.00;;;;;;;23.74;100.00;100914.41;5029323;28;20136;-66
2023/06/24 05:49:42;;;;;;;1.52;0.80;;;;;;;23.62;100.00;100906.53;5022843;28;20060;-66
2023/06/24 05:52:09;;;;;;;2.88;0.93;;;;;;;23.02;100.00;100919.81;5030421;28;20151;-66
2023/06/24 05:54:36;;;;;;;2.75;0.68;;;;;;;23.16;100.00;100915.13;5020368;28;20045;-66
2023/06/24 05:57:06;;;;;;;1.83;0.90;;;;;;;22.71;100.00;100918.97;5026706;28;20060;-66
2023/06/24 05:59:33;;;;;;;2.42;1.00;;;;;;;23.04;100.00;100914.34;5028028;28;20072;-66
2023/06/24 06:02:01;;;;;;;3.42;1.40;;;;;;;23.02;100.00;100925.16;5035355;28;20108;-66
2023/06/24 06:04:28;;;;;;;2.03;1.00;;;;;;;23.35;100.00;100931.19;5032012;28;20057;-66
2023/06/24 06:06:55;;;;;;;2.58;1.20;;;;;;;23.66;100.00;100918.63;5042206;28;20049;-66
2023/06/24 06:09:22;;;;;;;1.75;0.90;;;;;;;23.67;100.00;100916.78;5024109;28;20125;-66
2023/06/24 06:11:49;;;;;;;2.50;1.00;;;;;;;24.11;100.00;100930.63;5043509;28;20235;-66
2023/06/24 06:14:16;;;;;;;3.03;1.20;;;;;;;24.28;100.00;100934.44;5033580;28;20038;-66
2023/06/24 06:16:42;;;;;;;2.90;1.20;;;;;;;24.49;100.00;100931.59;5027904;28;20051;-67
2023/06/24 06:19:09;;;;;;;3.03;1.05;;;;;;;24.45;100.00;100933.72;5029761;28;20052;-66
2023/06/24 06:21:36;;;;;;;4.70;1.10;;;;;;;24.76;100.00;100924.66;5040085;28;20045;-66
2023/06/24 06:24:03;;;;;;;2.92;1.20;;;;;;;24.91;100.00;100935.75;5026077;28;20419;-65
2023/06/24 06:26:30;;;;;;;3.50;1.20;;;;;;;25.61;100.00;100946.88;5024807;28;20495;-65
2023/06/24 06:28:57;;;;;;;3.67;1.10;;;;;;;25.76;100.00;100948.03;5032772;28;20528;-66
2023/06/24 06:31:25;;;;;;;2.65;1.20;;;;;;;25.09;100.00;100941.16;5031301;28;20136;-65
2023/06/24 06:33:53;;;;;;;2.42;1.00;;;;;;;24.91;100.00;100933.06;5027513;28;20041;-67
2023/06/24 06:36:20;;;;;;;3.42;1.13;;;;;;;25.36;100.00;100932.34;5038350;28;20140;-66
2023/06/24 06:38:47;;;;;;;2.78;1.17;;;;;;;25.58;100.00;100923.88;5042752;28;20417;-66
2023/06/24 06:41:14;;;;;;;2.15;0.75;;;;;;;25.00;100.00;100935.72;5037061;28;20501;-66
2023/06/24 06:43:40;;;;;;;2.90;1.13;;;;;;;25.45;100.00;100930.59;5038260;28;20056;-66
2023/06/24 06:46:07;;;;;;;2.95;1.17;;;;;;;25.92;100.00;100947.38;5030467;28;20135;-66
2023/06/24 06:48:34;;;;;;;2.65;1.00;;;;;;;26.26;100.00;100935.09;5026445;28;20050;-66
2023/06/24 06:51:01;;;;;;;3.45;1.15;;;;;;;26.42;100.00;100945.97;5030335;28;20045;-66
2023/06/24 06:53:27;;;;;;;2.55;1.02;;;;;;;27.04;100.00;100940.50;5027736;28;20079;-67
2023/06/24 06:55:54;;;;;;;3.10;1.00;;;;;;;26.41;100.00;100948.81;5024738;28;20558;-67
2023/06/24 06:58:21;;;;;;;1.60;0.82;;;;;;;25.95;100.00;100949.75;5028755;28;20050;-66
2023/06/24 07:00:47;;;;;;;1.65;0.80;;;;;;;26.07;100.00;100950.38;5028809;28;20057;-66
2023/06/24 07:03:14;;;;;;;2.00;0.82;;;;;;;26.29;100.00;100942.84;5034035;28;20054;-66
2023/06/24 07:05:41;;;;;;;2.25;0.90;;;;;;;26.25;100.00;100954.88;5028213;28;20096;-66
2023/06/24 07:08:08;;;;;;;3.20;1.20;;;;;;;26.63;100.00;100958.22;5029289;28;20049;-66
2023/06/24 07:10:35;;;;;;;3.40;1.10;;;;;;;26.70;100.00;100957.44;5029155;28;20038;-67
2023/06/24 07:13:02;;;;;;;2.35;0.88;;;;;;;27.30;100.00;100961.13;5027090;28;20052;-66
2023/06/24 07:15:29;;;;;;;2.05;0.95;;;;;;;26.95;100.00;100962.09;5019767;28;20056;-66
2023/06/24 07:17:55;;;;;;;2.05;0.95;;;;;;;27.04;100.00;100956.63;5029280;28;20060;-67
2023/06/24 07:20:22;;;;;;;1.95;0.80;;;;;;;27.79;100.00;100963.97;5019761;28;20128;-66
2023/06/24 07:22:49;;;;;;;2.90;1.00;;;;;;;27.85;100.00;100954.41;5029143;28;20047;-66
2023/06/24 07:25:16;;;;;;;1.88;0.80;;;;;;;27.62;100.00;100957.75;5022395;28;20204;-66
2023/06/24 07:27:42;;;;;;;2.22;0.63;;;;;;;27.67;100.00;100948.31;5026955;28;20049;-66
2023/06/24 07:30:09;;;;;;;3.15;0.90;;;;;;;27.78;100.00;100956.94;5022813;28;20059;-66
2023/06/24 07:32:36;;;;;;;1.55;0.70;;;;;;;27.46;100.00;100955.84;5024109;28;20061;-66
2023/06/24 07:35:03;;;;;;;1.30;0.60;;;;;;;27.14;100.00;100961.88;5018642;28;20054;-66
2023/06/24 07:37:30;;;;;;;1.45;0.70;;;;;;;27.44;100.00;100955.13;5020528;28;20050;-66
2023/06/24 07:39:57;;;;;;;3.28;1.17;;;;;;;27.37;100.00;100964.03;5025711;28;20156;-66
2023/06/24 07:42:23;;;;;;;4.07;1.27;;;;;;;27.83;100.00;100969.88;5020149;28;20049;-68
2023/06/24 07:44:50;;;;;;;3.47;1.00;;;;;;;27.87;100.00;100984.69;5028088;28;20042;-66
2023/06/24 07:47:18;;;;;;;4.80;1.17;;;;;;;26.89;100.00;100987.78;5023964;28;20075;-67
2023/06/24 07:49:45;;;;;;;4.72;1.30;;;;;;;27.17;100.00;100977.69;5025497;28;20054;-66
2023/06/24 07:52:12;;;;;;;3.85;1.13;;;;;;;27.74;100.00;100969.00;5025608;28;20046;-67
2023/06/24 07:54:38;;;;;;;8.30;1.77;;;;;;;27.03;100.00;100976.44;5014129;28;20367;-67
2023/06/24 07:57:05;;;;;;;4.13;1.50;;;;;;;26.85;100.00;100992.63;5017351;28;20052;-67
2023/06/24 07:59:32;;;;;;;3.78;1.33;;;;;;;26.71;100.00;100990.50;5029734;28;20128;-67
2023/06/24 08:01:59;;;;;;;5.25;1.42;;;;;;;26.27;100.00;100990.47;5038066;28;20434;-66
2023/06/24 08:04:25;;;;;;;4.93;1.45;;;;;;;26.12;100.00;100991.00;5043051;28;20156;-66
2023/06/24 08:06:52;;;;;;;5.78;1.75;;;;;;;25.98;100.00;100985.34;5031033;28;20050;-67
2023/06/24 08:09:19;;;;;;;7.50;2.00;;;;;;;26.52;100.00;100976.25;5031396;28;20049;-67
2023/06/24 08:11:46;;;;;;;5.25;1.75;;;;;;;26.39;100.00;100964.22;5031449;28;20053;-67
2023/06/24 08:14:13;;;;;;;5.35;1.90;;;;;;;26.69;100.00;100976.41;5029131;28;20122;-67
2023/06/24 08:16:39;;;;;;;9.10;1.95;;;;;;;26.12;100.00;100982.97;5030853;28;20049;-68
2023/06/24 08:19:06;;;;;;;5.50;1.73;;;;;;;25.41;100.00;100982.81;5026886;28;20100;-67
2023/06/24 08:21:34;;;;;;;4.93;1.60;;;;;;;25.26;100.00;100983.28;5025791;28;20620;-68
2023/06/24 08:24:01;;;;;;;5.47;1.40;;;;;;;25.37;100.00;100980.44;5018566;28;20384;-67
2023/06/24 08:26:27;;;;;;;5.78;1.67;;;;;;;24.63;100.00;100982.03;5024105;28;20045;-67
2023/06/24 08:28:54;;;;;;;6.97;2.20;;;;;;;24.59;100.00;100985.13;5039114;28;20120;-67
2023/06/24 08:31:22;;;;;;;8.30;2.17;;;;;;;24.33;100.00;100963.44;5021481;28;20049;-67
2023/06/24 08:33:55;;;;;;;9.27;2.17;;;;;;;24.38;100.00;100972.75;5019446;28;20048;-65
2023/06/24 08:36:25;;;;;;;6.88;1.83;;;;;;;25.06;100.00;100984.34;5030885;28;20403;-66
2023/06/24 08:38:52;;;;;;;7.80;2.38;;;;;;;24.86;100.00;100987.06;5031720;28;20052;-67
2023/06/24 08:41:19;;;;;;;6.70;1.63;;;;;;;24.83;100.00;100982.84;5024231;28;20376;-67
2023/06/24 08:43:45;;;;;;;7.85;2.00;;;;;;;24.99;100.00;100979.56;5025595;28;20539;-67
2023/06/24 08:46:15;;;;;;;5.15;1.65;;;;;;;25.19;100.00;100979.47;5028111;28;20467;-67
2023/06/24 08:48:44;;;;;;;6.78;2.30;;;;;;;25.64;100.00;100975.19;5024846;28;20050;-67
2023/06/24 08:51:14;;;;;;;8.55;2.45;;;;;;;25.46;100.00;100986.75;5027304;28;20511;-66
2023/06/24 08:53:46;;;;;;;8.48;2.17;;;;;;;25.81;100.00;100982.44;5022596;28;20050;-67
2023/06/24 08:56:14;;;;;;;5.97;1.70;;;;;;;26.13;100.00;100992.69;5024973;28;20107;-67
2023/06/24 08:58:41;;;;;;;5.93;1.83;;;;;;;26.81;100.00;100983.19;5030602;28;20137;-66
2023/06/24 09:01:08;;;;;;;5.97;1.90;;;;;;;27.02;100.00;100988.19;5028183;28;20539;-67
2023/06/24 09:03:35;;;;;;;8.77;1.83;;;;;;;27.11;100.00;100990.91;5028467;28;20554;-66
2023/06/24 09:06:02;;;;;;;6.13;1.80;;;;;;;26.97;100.00;100985.16;5029309;28;20551;-66
2023/06/24 09:08:29;;;;;;;5.57;2.00;;;;;;;26.77;100.00;100991.72;5028574;28;20077;-66
2023/06/24 09:10:56;;;;;;;5.32;2.00;;;;;;;26.28;100.00;100995.69;5030930;28;20068;-67
2023/06/24 09:13:43;;;;;;;4.32;1.58;;;;;;;26.68;100.00;100993.50;5026327;28;20049;-66
2023/06/24 09:19:51;;;;;;;6.13;1.80;;;;;;;27.58;100.00;101003.94;5011479;28;20049;-67
2023/06/24 09:22:19;;;;;;;4.18;1.58;;;;;;;27.31;100.00;101000.47;5014686;28;20112;-65
2023/06/24 09:24:47;;;;;;;5.28;1.70;;;;;;;28.01;100.00;101010.13;5010466;28;20157;-67
2023/06/24 09:27:15;;;;;;;9.27;2.50;;;;;;;27.63;100.00;101013.19;5016545;28;20455;-66
2023/06/24 09:29:43;;;;;;;6.68;2.03;;;;;;;27.46;100.00;101001.56;5011270;28;20084;-66
2023/06/24 09:32:10;;;;;;;5.57;1.90;;;;;;;27.68;100.00;101007.34;5029001;28;20053;-67
2023/06/24 09:34:38;;;;;;;6.65;2.15;;;;;;;27.30;100.00;101009.53;5026793;28;20041;-67
2023/06/24 09:37:04;;;;;;;5.97;1.90;;;;;;;27.56;100.00;101004.09;5035761;28;20143;-66
2023/06/24 09:39:36;;;;;;;4.97;1.80;;;;;;;27.92;100.00;101011.97;5032404;28;20891;-67
2023/06/24 09:42:05;;;;;;;5.20;2.00;;;;;;;27.27;100.00;101007.19;5021351;28;20054;-66
2023/06/24 09:44:32;;;;;;;4.78;1.58;;;;;;;27.26;100.00;101014.34;5015873;28;20072;-67
2023/06/24 09:46:59;;;;;;;6.30;2.03;;;;;;;26.86;100.00;101002.38;5019205;28;20131;-66
2023/06/24 09:49:26;;;;;;;5.30;1.98;;;;;;;27.31;100.00;101008.53;5020677;28;20050;-67
2023/06/24 09:51:59;;;;;;;5.35;1.92;;;;;;;27.60;100.00;101007.31;5027657;28;20140;-68
2023/06/24 09:54:28;;;;;;;5.00;1.70;;;;;;;28.27;100.00;100998.41;5029091;28;20041;-67
2023/06/24 09:57:02;;;;;;;4.50;1.45;;;;;;;28.31;100.00;101003.25;5021921;28;20116;-68
2023/06/24 09:59:30;;;;;;;5.47;2.10;;;;;;;28.19;100.00;101008.16;5020185;28;20136;-68
2023/06/24 10:01:58;;;;;;;5.60;1.70;;;;;;;27.78;100.00;101008.06;5022972;28;20483;-68
2023/06/24 10:04:27;;;;;;;4.65;1.60;;;;;;;27.62;100.00;101005.28;5014658;28;20049;-68
2023/06/24 10:06:55;;;;;;;4.47;1.58;;;;;;;27.59;100.00;101009.16;5018264;28;20057;-69
2023/06/24 10:09:22;;;;;;;6.40;1.98;;;;;;;27.16;100.00;101008.28;5010744;28;20088;-68
2023/06/24 10:11:49;;;;;;;5.32;1.88;;;;;;;27.37;100.00;100998.97;5020665;28;20599;-68
2023/06/24 10:14:16;;;;;;;3.72;1.48;;;;;;;27.51;100.00;101011.81;5025521;28;20053;-67
2023/06/24 10:16:43;;;;;;;5.78;1.58;;;;;;;27.56;100.00;101005.94;5027354;28;20480;-68
2023/06/24 10:19:09;;;;;;;4.10;1.50;;;;;;;27.42;100.00;101015.47;5017893;28;20057;-67
2023/06/24 10:21:59;;;;;;;5.15;1.90;;;;;;;27.79;100.00;101017.78;5028644;28;20053;-68
2023/06/24 10:24:32;;;;;;;5.63;2.08;;;;;;;27.90;100.00;101015.81;5022144;28;20061;-67
2023/06/24 10:27:04;;;;;;;4.43;1.50;;;;;;;28.34;100.00;100999.41;5032908;28;20505;-67
2023/06/24 10:29:35;;;;;;;;;;;;;;;28.56;100.00;100995.22;5025219;28;20057;-68
2023/06/24 10:32:04;;;;;;;3.92;1.40;;;;;;;28.39;100.00;100991.69;5019238;28;20302;-67
2023/06/24 10:34:32;;;;;;;5.80;1.70;;;;;;;28.08;100.00;100989.63;5021649;28;20515;-68
2023/06/24 10:37:01;;;;;;;4.47;1.50;;;;;;;28.61;100.00;101000.09;5027429;28;20087;-67
2023/06/24 10:39:50;;;;;;;3.80;1.40;;;;;;;28.65;100.00;101006.84;5027519;28;20046;-67
2023/06/24 10:42:41;;;;;;;4.35;1.63;;;;;;;28.24;100.00;101009.50;5027713;28;20048;-67
2023/06/24 10:45:08;;;;;;;4.55;1.63;;;;;;;28.50;100.00;101012.88;5019710;28;20046;-68
2023/06/24 10:47:46;;;;;;;4.65;1.55;;;;;;;28.45;100.00;101004.44;5019622;28;20058;-71
2023/06/24 10:50:19;;;;;;;6.35;1.60;;;;;;;28.86;100.00;101003.59;5025160;28;20094;-70
2023/06/24 10:52:48;;;;;;;4.60;1.63;;;;;;;28.96;100.00;101006.97;5028050;28;20435;-70
2023/06/24 10:55:16;;;;;;;5.00;1.60;;;;;;;29.28;100.00;101011.44;5036552;28;20042;-70
2023/06/24 10:57:44;;;;;;;4.50;1.50;;;;;;;29.38;100.00;101021.22;5028564;28;20372;-70
2023/06/24 11:00:12;;;;;;;5.38;1.70;;;;;;;29.21;100.00;101015.84;5022736;28;20125;-70
2023/06/24 11:02:39;;;;;;;4.60;1.50;;;;;;;29.48;100.00;101009.19;5025550;28;20133;-70
2023/06/24 11:05:06;;;;;;;4.40;1.67;;;;;;;29.01;100.00;101018.06;5023995;28;20494;-70
2023/06/24 11:07:35;;;;;;;5.80;1.58;;;;;;;28.95;100.00;101016.03;5028887;28;20129;-70
2023/06/24 11:10:11;;;;;;;4.43;1.50;;;;;;;29.18;100.00;101013.53;5031570;28;20092;-70
2023/06/24 11:12:40;;;;;;;4.90;1.67;;;;;;;29.29;100.00;101012.31;5017389;28;20049;-70
2023/06/24 11:15:12;;;;;;;4.53;1.50;;;;;;;29.01;100.00;101004.59;5021141;28;20145;-71
2023/06/24 11:17:39;;;;;;;6.00;1.70;;;;;;;29.03;100.00;101009.81;5027750;28;20145;-71
2023/06/24 11:20:11;;;;;;;6.13;1.70;;;;;;;29.00;100.00;101005.59;5019496;28;20060;-70
2023/06/24 11:22:40;;;;;;;6.27;1.60;;;;;;;29.05;100.00;100995.13;5028843;28;20478;-70
2023/06/24 11:25:15;;;;;;;6.15;1.98;;;;;;;29.06;100.00;101004.09;5030630;28;20049;-70